Hayden, CO (81639)

09:21 AM MST am 18. Dezember 2014 (GMT -0700)
HAYDEN, COLORADO (DOWN TOWN) | Change Station
CLOSE
Current Station
Persönliche Wetterstationen
Location: Hayden, CO
Höhe: 6352 ft
Wetterstationen in der Umgebung
aktive Warnung: Special Statement aktiver Hinweis: Public Information Statement

Höhe 6352 ft 40.50 °N, 107.25 °W | Updated 8 seconds ago

Overcast
Bedeckt
25.9 °F
gefühlte 26 °F
N
0.0
Wind Wechselnd Wind aus Nord-Nordost
Gusts 0.0 mph

Heute
Max. -- | schwach -- °F
--% Regenrisiko
Gestern
Max. -- | schwach -- °F
Precip. -- inch
7:27 AM 4:44 PM
Letztes Viertel, 13% visible
Druck 30.13 inch
Sichtweite 8.0 Meilen
Wolken Bedeckt 1000 ft
Windchill 26 °F
Taupunkt 24 °F
Feuchtigkeit 90%
Regen 0.00 inch
Schneehöhe Nicht verfügbar..
UV 0 von 12
Pollen .10 von 12
Luftqualität Nicht verfügbar..
Flu Activity Nicht verfügbar..
METAR KHDN 181615Z AUTO 22003KT 8SM OVC010 M06/M08 A3013 RMK AO1

More Conditions Fewer Conditions

Druck 30.13 inch
Sichtweite 8.0 Meilen
Wolken Bedeckt 1000 ft
Windchill 26 °F
Taupunkt 24 °F
Feuchtigkeit 90%
Regen 0.00 inch
Schneehöhe Nicht verfügbar..
UV 0 von 12
Pollen .10 von 12
Luftqualität Nicht verfügbar..
Flu Activity Nicht verfügbar..
METAR KHDN 181615Z AUTO 22003KT 8SM OVC010 M06/M08 A3013 RMK AO1

More Conditions Fewer Conditions

10-Day Weather Forecast

Almanac

Astronomie

Dec. 18, 2014 Aufgang Untergang
Genaue Zeit
Bürgerliche Dämmerung
Nautische Dämmerung
Astronomische Dämmerung
Mond
Länge des sichtbaren Lichts
Tageslänge
Tomorrow will be .
, % of the Moon is Illuminated

Heutige Rekorde

State Highs State Lows

Community

WunderPhotos

Upload Photos

1,778,955 Fotos hochgeladen!

WunderBlogs® & News

Nearby

Luftqualität

  Luftqualität LQ Index Schadstoff
Not available.

Schneehöhe

Station Depth Höhe

Erdbebenaktivität

Stadt Distance Mag. Time & Date
Minimum magnitude displayed is 2.5.

küstennahe Wassertemperaturen

Ort Temperatur

Wetterstationen in der Umgebung